sensor_id;sensor_type;location;lat;lon;timestamp;temperature;humidity
4993;DHT22;2514;53.524;10.166;2022-11-25T00:02:26;4.50;99.90
4993;DHT22;2514;53.524;10.166;2022-11-25T00:04:53;4.50;99.90
4993;DHT22;2514;53.524;10.166;2022-11-25T00:07:20;4.50;99.90
4993;DHT22;2514;53.524;10.166;2022-11-25T00:09:47;4.50;99.90
4993;DHT22;2514;53.524;10.166;2022-11-25T00:12:15;4.50;99.90
4993;DHT22;2514;53.524;10.166;2022-11-25T00:14:42;4.50;99.90
4993;DHT22;2514;53.524;10.166;2022-11-25T00:17:09;4.50;99.90
4993;DHT22;2514;53.524;10.166;2022-11-25T00:19:36;4.50;99.90
4993;DHT22;2514;53.524;10.166;2022-11-25T00:22:03;4.50;99.90
4993;DHT22;2514;53.524;10.166;2022-11-25T00:24:30;4.50;99.90
4993;DHT22;2514;53.524;10.166;2022-11-25T00:26:57;4.50;99.90
4993;DHT22;2514;53.524;10.166;2022-11-25T00:29:25;4.50;99.90
4993;DHT22;2514;53.524;10.166;2022-11-25T00:31:52;4.50;99.90
4993;DHT22;2514;53.524;10.166;2022-11-25T00:34:19;4.50;99.90
4993;DHT22;2514;53.524;10.166;2022-11-25T00:36:47;4.50;99.90
4993;DHT22;2514;53.524;10.166;2022-11-25T00:39:16;4.50;99.90
4993;DHT22;2514;53.524;10.166;2022-11-25T00:41:45;4.50;99.90
4993;DHT22;2514;53.524;10.166;2022-11-25T00:44:31;4.50;99.90
4993;DHT22;2514;53.524;10.166;2022-11-25T00:47:01;4.50;99.90
4993;DHT22;2514;53.524;10.166;2022-11-25T00:49:29;4.40;99.90
4993;DHT22;2514;53.524;10.166;2022-11-25T00:51:56;4.40;99.90
4993;DHT22;2514;53.524;10.166;2022-11-25T00:54:23;4.50;99.90
4993;DHT22;2514;53.524;10.166;2022-11-25T00:56:51;4.50;99.90
4993;DHT22;2514;53.524;10.166;2022-11-25T00:59:18;4.50;99.90
4993;DHT22;2514;53.524;10.166;2022-11-25T01:01:47;4.50;99.90
4993;DHT22;2514;53.524;10.166;2022-11-25T01:04:14;4.50;99.90
4993;DHT22;2514;53.524;10.166;2022-11-25T01:06:42;4.50;99.90
4993;DHT22;2514;53.524;10.166;2022-11-25T01:09:10;4.60;99.90
4993;DHT22;2514;53.524;10.166;2022-11-25T01:11:38;4.60;99.90
4993;DHT22;2514;53.524;10.166;2022-11-25T01:14:06;4.60;99.90
4993;DHT22;2514;53.524;10.166;2022-11-25T01:16:33;4.50;99.90
4993;DHT22;2514;53.524;10.166;2022-11-25T01:19:02;4.60;99.90
4993;DHT22;2514;53.524;10.166;2022-11-25T01:21:31;4.60;99.90
4993;DHT22;2514;53.524;10.166;2022-11-25T01:24:00;4.60;99.90
4993;DHT22;2514;53.524;10.166;2022-11-25T01:26:29;4.50;99.90
4993;DHT22;2514;53.524;10.166;2022-11-25T01:28:57;4.50;99.90
4993;DHT22;2514;53.524;10.166;2022-11-25T01:31:27;4.50;99.90
4993;DHT22;2514;53.524;10.166;2022-11-25T01:33:57;4.50;99.90
4993;DHT22;2514;53.524;10.166;2022-11-25T01:36:27;4.50;99.90
4993;DHT22;2514;53.524;10.166;2022-11-25T01:38:56;4.50;99.90
4993;DHT22;2514;53.524;10.166;2022-11-25T01:41:25;4.50;99.90
4993;DHT22;2514;53.524;10.166;2022-11-25T01:44:05;4.40;99.90
4993;DHT22;2514;53.524;10.166;2022-11-25T01:46:44;4.40;99.90
4993;DHT22;2514;53.524;10.166;2022-11-25T01:49:19;4.50;99.90
4993;DHT22;2514;53.524;10.166;2022-11-25T01:51:52;4.50;99.90
4993;DHT22;2514;53.524;10.166;2022-11-25T01:54:24;4.50;99.90
4993;DHT22;2514;53.524;10.166;2022-11-25T01:56:56;4.50;99.90
4993;DHT22;2514;53.524;10.166;2022-11-25T01:59:25;4.40;99.90
4993;DHT22;2514;53.524;10.166;2022-11-25T02:01:54;4.40;99.90
4993;DHT22;2514;53.524;10.166;2022-11-25T02:04:24;4.40;99.90
4993;DHT22;2514;53.524;10.166;2022-11-25T02:06:58;4.30;99.90
4993;DHT22;2514;53.524;10.166;2022-11-25T02:09:29;4.30;99.90
4993;DHT22;2514;53.524;10.166;2022-11-25T02:11:57;4.30;99.90
4993;DHT22;2514;53.524;10.166;2022-11-25T02:14:24;4.30;99.90
4993;DHT22;2514;53.524;10.166;2022-11-25T02:16:52;4.30;99.90
4993;DHT22;2514;53.524;10.166;2022-11-25T02:19:22;4.30;99.90
4993;DHT22;2514;53.524;10.166;2022-11-25T02:21:55;4.30;99.90
4993;DHT22;2514;53.524;10.166;2022-11-25T02:24:30;4.30;99.90
4993;DHT22;2514;53.524;10.166;2022-11-25T02:27:02;4.30;99.90
4993;DHT22;2514;53.524;10.166;2022-11-25T02:29:31;4.30;99.90
4993;DHT22;2514;53.524;10.166;2022-11-25T02:31:58;4.20;99.90
4993;DHT22;2514;53.524;10.166;2022-11-25T02:34:25;4.30;99.90
4993;DHT22;2514;53.524;10.166;2022-11-25T02:36:52;4.30;99.90
4993;DHT22;2514;53.524;10.166;2022-11-25T02:39:20;4.20;99.90
4993;DHT22;2514;53.524;10.166;2022-11-25T02:41:50;4.30;99.90
4993;DHT22;2514;53.524;10.166;2022-11-25T02:44:21;4.30;99.90
4993;DHT22;2514;53.524;10.166;2022-11-25T02:46:49;4.30;99.90
4993;DHT22;2514;53.524;10.166;2022-11-25T02:49:16;4.30;99.90
4993;DHT22;2514;53.524;10.166;2022-11-25T02:51:44;4.30;99.90
4993;DHT22;2514;53.524;10.166;2022-11-25T02:54:13;4.30;99.90
4993;DHT22;2514;53.524;10.166;2022-11-25T02:56:41;4.30;99.90
4993;DHT22;2514;53.524;10.166;2022-11-25T02:59:09;4.30;99.90
4993;DHT22;2514;53.524;10.166;2022-11-25T03:01:38;4.20;99.90
4993;DHT22;2514;53.524;10.166;2022-11-25T03:04:05;4.10;99.90
4993;DHT22;2514;53.524;10.166;2022-11-25T03:06:32;4.00;99.90
4993;DHT22;2514;53.524;10.166;2022-11-25T03:09:00;3.90;99.90
4993;DHT22;2514;53.524;10.166;2022-11-25T03:11:27;3.90;99.90
4993;DHT22;2514;53.524;10.166;2022-11-25T03:14:08;3.90;99.90
4993;DHT22;2514;53.524;10.166;2022-11-25T03:16:35;3.80;99.90
4993;DHT22;2514;53.524;10.166;2022-11-25T03:19:03;3.80;99.90
4993;DHT22;2514;53.524;10.166;2022-11-25T03:21:30;3.80;99.90
4993;DHT22;2514;53.524;10.166;2022-11-25T03:23:57;3.80;99.90
4993;DHT22;2514;53.524;10.166;2022-11-25T03:26:24;3.80;99.90
4993;DHT22;2514;53.524;10.166;2022-11-25T03:28:51;3.80;99.90
4993;DHT22;2514;53.524;10.166;2022-11-25T03:31:18;3.80;99.90
4993;DHT22;2514;53.524;10.166;2022-11-25T03:33:45;3.80;99.90
4993;DHT22;2514;53.524;10.166;2022-11-25T03:36:14;3.80;99.90
4993;DHT22;2514;53.524;10.166;2022-11-25T03:38:41;3.80;99.90
4993;DHT22;2514;53.524;10.166;2022-11-25T03:41:08;3.70;99.90
4993;DHT22;2514;53.524;10.166;2022-11-25T03:43:35;3.70;99.90
4993;DHT22;2514;53.524;10.166;2022-11-25T03:46:02;3.60;99.90
4993;DHT22;2514;53.524;10.166;2022-11-25T03:48:30;3.60;99.90
4993;DHT22;2514;53.524;10.166;2022-11-25T03:50:57;3.60;99.90
4993;DHT22;2514;53.524;10.166;2022-11-25T03:53:25;3.60;99.90
4993;DHT22;2514;53.524;10.166;2022-11-25T03:55:52;3.60;99.90
4993;DHT22;2514;53.524;10.166;2022-11-25T03:58:19;3.60;99.90
4993;DHT22;2514;53.524;10.166;2022-11-25T04:00:46;3.70;99.90
4993;DHT22;2514;53.524;10.166;2022-11-25T04:03:14;3.70;99.90
4993;DHT22;2514;53.524;10.166;2022-11-25T04:05:41;3.80;99.90
4993;DHT22;2514;53.524;10.166;2022-11-25T04:08:08;3.90;99.90
4993;DHT22;2514;53.524;10.166;2022-11-25T04:10:37;3.90;99.90
4993;DHT22;2514;53.524;10.166;2022-11-25T04:13:03;4.00;99.90
4993;DHT22;2514;53.524;10.166;2022-11-25T04:15:29;4.00;99.90
4993;DHT22;2514;53.524;10.166;2022-11-25T04:17:57;4.00;99.90
4993;DHT22;2514;53.524;10.166;2022-11-25T04:20:23;4.00;99.90
4993;DHT22;2514;53.524;10.166;2022-11-25T04:22:51;4.00;99.90
4993;DHT22;2514;53.524;10.166;2022-11-25T04:25:18;4.10;99.90
4993;DHT22;2514;53.524;10.166;2022-11-25T04:27:47;4.10;99.90
4993;DHT22;2514;53.524;10.166;2022-11-25T04:30:14;4.10;99.90
4993;DHT22;2514;53.524;10.166;2022-11-25T04:32:41;4.10;99.90
4993;DHT22;2514;53.524;10.166;2022-11-25T04:35:08;4.10;99.90
4993;DHT22;2514;53.524;10.166;2022-11-25T04:37:35;4.10;99.90
4993;DHT22;2514;53.524;10.166;2022-11-25T04:40:04;4.10;99.90
4993;DHT22;2514;53.524;10.166;2022-11-25T04:42:32;4.10;99.90
4993;DHT22;2514;53.524;10.166;2022-11-25T04:45:05;4.10;99.90
4993;DHT22;2514;53.524;10.166;2022-11-25T04:47:34;4.10;99.90
4993;DHT22;2514;53.524;10.166;2022-11-25T04:50:01;4.10;99.90
4993;DHT22;2514;53.524;10.166;2022-11-25T04:52:28;4.00;99.90
4993;DHT22;2514;53.524;10.166;2022-11-25T04:54:55;4.10;99.90
4993;DHT22;2514;53.524;10.166;2022-11-25T04:57:22;4.00;99.90
4993;DHT22;2514;53.524;10.166;2022-11-25T04:59:49;4.00;99.90
4993;DHT22;2514;53.524;10.166;2022-11-25T05:02:18;4.00;99.90
4993;DHT22;2514;53.524;10.166;2022-11-25T05:04:48;4.00;99.90
4993;DHT22;2514;53.524;10.166;2022-11-25T05:07:18;3.90;99.90
4993;DHT22;2514;53.524;10.166;2022-11-25T05:09:46;3.90;99.90
4993;DHT22;2514;53.524;10.166;2022-11-25T05:12:14;3.90;99.90
4993;DHT22;2514;53.524;10.166;2022-11-25T05:14:43;3.90;99.90
4993;DHT22;2514;53.524;10.166;2022-11-25T05:17:13;3.90;99.90
4993;DHT22;2514;53.524;10.166;2022-11-25T05:19:42;3.90;99.90
4993;DHT22;2514;53.524;10.166;2022-11-25T05:22:10;3.80;99.90
4993;DHT22;2514;53.524;10.166;2022-11-25T05:24:38;3.80;99.90
4993;DHT22;2514;53.524;10.166;2022-11-25T05:27:05;3.80;99.90
4993;DHT22;2514;53.524;10.166;2022-11-25T05:29:32;3.70;99.90
4993;DHT22;2514;53.524;10.166;2022-11-25T05:31:59;3.80;99.90
4993;DHT22;2514;53.524;10.166;2022-11-25T05:34:27;3.70;99.90
4993;DHT22;2514;53.524;10.166;2022-11-25T05:36:55;3.70;99.90
4993;DHT22;2514;53.524;10.166;2022-11-25T05:39:23;3.70;99.90
4993;DHT22;2514;53.524;10.166;2022-11-25T05:41:50;3.70;99.90
4993;DHT22;2514;53.524;10.166;2022-11-25T05:44:17;3.70;99.90
4993;DHT22;2514;53.524;10.166;2022-11-25T05:46:44;3.70;99.90
4993;DHT22;2514;53.524;10.166;2022-11-25T05:49:13;3.70;99.90
4993;DHT22;2514;53.524;10.166;2022-11-25T05:51:40;3.70;99.90
4993;DHT22;2514;53.524;10.166;2022-11-25T05:54:09;3.70;99.90
4993;DHT22;2514;53.524;10.166;2022-11-25T05:56:36;3.70;99.90
4993;DHT22;2514;53.524;10.166;2022-11-25T05:59:03;3.80;99.90
4993;DHT22;2514;53.524;10.166;2022-11-25T06:01:31;3.80;99.90
4993;DHT22;2514;53.524;10.166;2022-11-25T06:03:59;3.80;99.90
4993;DHT22;2514;53.524;10.166;2022-11-25T06:06:26;3.80;99.90
4993;DHT22;2514;53.524;10.166;2022-11-25T06:08:54;3.80;99.90
4993;DHT22;2514;53.524;10.166;2022-11-25T06:11:22;3.80;99.90
4993;DHT22;2514;53.524;10.166;2022-11-25T06:13:50;3.80;99.90
4993;DHT22;2514;53.524;10.166;2022-11-25T06:16:19;3.90;99.90
4993;DHT22;2514;53.524;10.166;2022-11-25T06:18:48;3.90;99.90
4993;DHT22;2514;53.524;10.166;2022-11-25T06:21:16;3.90;99.90
4993;DHT22;2514;53.524;10.166;2022-11-25T06:23:43;3.90;99.90
4993;DHT22;2514;53.524;10.166;2022-11-25T06:26:12;3.90;99.90
4993;DHT22;2514;53.524;10.166;2022-11-25T06:28:43;3.80;99.90
4993;DHT22;2514;53.524;10.166;2022-11-25T06:31:13;3.90;99.90
4993;DHT22;2514;53.524;10.166;2022-11-25T06:33:41;3.90;99.90
4993;DHT22;2514;53.524;10.166;2022-11-25T06:36:09;3.90;99.90
4993;DHT22;2514;53.524;10.166;2022-11-25T06:38:41;3.90;99.90
4993;DHT22;2514;53.524;10.166;2022-11-25T06:41:09;3.90;99.90
4993;DHT22;2514;53.524;10.166;2022-11-25T06:43:36;3.90;99.90
4993;DHT22;2514;53.524;10.166;2022-11-25T06:46:06;4.00;99.90
4993;DHT22;2514;53.524;10.166;2022-11-25T06:48:35;4.00;99.90
4993;DHT22;2514;53.524;10.166;2022-11-25T06:51:04;4.00;99.90
4993;DHT22;2514;53.524;10.166;2022-11-25T06:53:32;4.10;99.90
4993;DHT22;2514;53.524;10.166;2022-11-25T06:56:05;4.10;99.90
4993;DHT22;2514;53.524;10.166;2022-11-25T06:58:34;4.10;99.90
4993;DHT22;2514;53.524;10.166;2022-11-25T07:01:06;4.10;99.90
4993;DHT22;2514;53.524;10.166;2022-11-25T07:03:34;4.20;99.90
4993;DHT22;2514;53.524;10.166;2022-11-25T07:06:01;4.20;99.90
4993;DHT22;2514;53.524;10.166;2022-11-25T07:08:29;4.20;99.90
4993;DHT22;2514;53.524;10.166;2022-11-25T07:11:02;4.30;99.90
4993;DHT22;2514;53.524;10.166;2022-11-25T07:13:30;4.30;99.90
4993;DHT22;2514;53.524;10.166;2022-11-25T07:16:00;4.40;99.90
4993;DHT22;2514;53.524;10.166;2022-11-25T07:18:30;4.40;99.90
4993;DHT22;2514;53.524;10.166;2022-11-25T07:21:02;4.50;99.90
4993;DHT22;2514;53.524;10.166;2022-11-25T07:23:30;4.50;99.90
4993;DHT22;2514;53.524;10.166;2022-11-25T07:26:01;4.60;99.90
4993;DHT22;2514;53.524;10.166;2022-11-25T07:28:29;4.60;99.90
4993;DHT22;2514;53.524;10.166;2022-11-25T07:31:03;4.60;99.90
4993;DHT22;2514;53.524;10.166;2022-11-25T07:33:33;4.70;99.90
4993;DHT22;2514;53.524;10.166;2022-11-25T07:36:02;4.70;99.90
4993;DHT22;2514;53.524;10.166;2022-11-25T07:38:30;4.70;99.90
4993;DHT22;2514;53.524;10.166;2022-11-25T07:41:03;4.80;99.90
4993;DHT22;2514;53.524;10.166;2022-11-25T07:43:31;4.80;99.90
4993;DHT22;2514;53.524;10.166;2022-11-25T07:46:08;4.80;99.90
4993;DHT22;2514;53.524;10.166;2022-11-25T07:48:38;4.80;99.90
4993;DHT22;2514;53.524;10.166;2022-11-25T07:51:13;4.90;99.90
4993;DHT22;2514;53.524;10.166;2022-11-25T07:53:41;4.90;99.90
4993;DHT22;2514;53.524;10.166;2022-11-25T07:56:08;4.90;99.90
4993;DHT22;2514;53.524;10.166;2022-11-25T07:58:35;4.90;99.90
4993;DHT22;2514;53.524;10.166;2022-11-25T08:01:03;4.90;99.90
4993;DHT22;2514;53.524;10.166;2022-11-25T08:03:31;4.90;99.90
4993;DHT22;2514;53.524;10.166;2022-11-25T08:06:01;4.90;99.90
4993;DHT22;2514;53.524;10.166;2022-11-25T08:08:28;4.90;99.90
4993;DHT22;2514;53.524;10.166;2022-11-25T08:10:55;4.90;99.90
4993;DHT22;2514;53.524;10.166;2022-11-25T08:13:23;4.90;99.90
4993;DHT22;2514;53.524;10.166;2022-11-25T08:15:51;4.90;99.90
4993;DHT22;2514;53.524;10.166;2022-11-25T08:18:18;5.00;99.90
4993;DHT22;2514;53.524;10.166;2022-11-25T08:20:45;5.00;99.90
4993;DHT22;2514;53.524;10.166;2022-11-25T08:23:13;5.10;99.90
4993;DHT22;2514;53.524;10.166;2022-11-25T08:25:40;5.10;99.90
4993;DHT22;2514;53.524;10.166;2022-11-25T08:28:08;5.10;99.90
4993;DHT22;2514;53.524;10.166;2022-11-25T08:30:35;5.10;99.90
4993;DHT22;2514;53.524;10.166;2022-11-25T08:33:02;5.10;99.90
4993;DHT22;2514;53.524;10.166;2022-11-25T08:35:31;5.10;99.90
4993;DHT22;2514;53.524;10.166;2022-11-25T08:38:03;5.20;99.90
4993;DHT22;2514;53.524;10.166;2022-11-25T08:40:32;5.20;99.90
4993;DHT22;2514;53.524;10.166;2022-11-25T08:43:01;5.20;99.90
4993;DHT22;2514;53.524;10.166;2022-11-25T08:45:29;5.30;99.90
4993;DHT22;2514;53.524;10.166;2022-11-25T08:47:56;5.30;99.90
4993;DHT22;2514;53.524;10.166;2022-11-25T08:50:23;5.30;99.90
4993;DHT22;2514;53.524;10.166;2022-11-25T08:52:50;5.30;99.90
4993;DHT22;2514;53.524;10.166;2022-11-25T08:55:17;5.30;99.90
4993;DHT22;2514;53.524;10.166;2022-11-25T08:57:47;5.30;99.90
4993;DHT22;2514;53.524;10.166;2022-11-25T09:00:15;5.30;99.90
4993;DHT22;2514;53.524;10.166;2022-11-25T09:02:42;5.30;99.90
4993;DHT22;2514;53.524;10.166;2022-11-25T09:05:10;5.30;99.90
4993;DHT22;2514;53.524;10.166;2022-11-25T09:07:38;5.40;99.90
4993;DHT22;2514;53.524;10.166;2022-11-25T09:10:07;5.40;99.90
4993;DHT22;2514;53.524;10.166;2022-11-25T09:12:35;5.40;99.90
4993;DHT22;2514;53.524;10.166;2022-11-25T09:15:05;5.50;99.90
4993;DHT22;2514;53.524;10.166;2022-11-25T09:17:33;5.50;99.90
4993;DHT22;2514;53.524;10.166;2022-11-25T09:20:02;5.50;99.90
4993;DHT22;2514;53.524;10.166;2022-11-25T09:22:30;5.50;99.90
4993;DHT22;2514;53.524;10.166;2022-11-25T09:24:57;5.40;99.90
4993;DHT22;2514;53.524;10.166;2022-11-25T09:27:24;5.40;99.90
4993;DHT22;2514;53.524;10.166;2022-11-25T09:29:51;5.50;99.90
4993;DHT22;2514;53.524;10.166;2022-11-25T09:32:19;5.50;99.90
4993;DHT22;2514;53.524;10.166;2022-11-25T09:34:46;5.60;99.90
4993;DHT22;2514;53.524;10.166;2022-11-25T09:37:13;5.50;99.90
4993;DHT22;2514;53.524;10.166;2022-11-25T09:39:40;5.50;99.90
4993;DHT22;2514;53.524;10.166;2022-11-25T09:42:21;5.50;99.90
4993;DHT22;2514;53.524;10.166;2022-11-25T09:45:15;5.50;99.90
4993;DHT22;2514;53.524;10.166;2022-11-25T09:48:19;5.40;99.90
4993;DHT22;2514;53.524;10.166;2022-11-25T09:51:03;5.50;99.90
4993;DHT22;2514;53.524;10.166;2022-11-25T09:53:41;5.40;99.90
4993;DHT22;2514;53.524;10.166;2022-11-25T09:56:21;5.40;99.90
4993;DHT22;2514;53.524;10.166;2022-11-25T09:58:59;5.40;99.90
4993;DHT22;2514;53.524;10.166;2022-11-25T10:01:30;5.40;99.90
4993;DHT22;2514;53.524;10.166;2022-11-25T10:04:01;5.30;99.90
4993;DHT22;2514;53.524;10.166;2022-11-25T10:06:31;5.20;99.90
4993;DHT22;2514;53.524;10.166;2022-11-25T10:09:08;5.20;99.90
4993;DHT22;2514;53.524;10.166;2022-11-25T10:11:47;5.20;99.90
4993;DHT22;2514;53.524;10.166;2022-11-25T10:14:24;5.10;99.90
4993;DHT22;2514;53.524;10.166;2022-11-25T10:16:59;5.20;99.90
4993;DHT22;2514;53.524;10.166;2022-11-25T10:19:38;5.10;99.90
4993;DHT22;2514;53.524;10.166;2022-11-25T10:22:23;5.10;99.90
4993;DHT22;2514;53.524;10.166;2022-11-25T10:24:56;5.10;99.90
4993;DHT22;2514;53.524;10.166;2022-11-25T10:27:27;5.20;99.90
4993;DHT22;2514;53.524;10.166;2022-11-25T10:30:03;5.10;99.90
4993;DHT22;2514;53.524;10.166;2022-11-25T10:32:39;5.10;99.90
4993;DHT22;2514;53.524;10.166;2022-11-25T10:35:18;5.10;99.90
4993;DHT22;2514;53.524;10.166;2022-11-25T10:37:52;5.20;99.90
4993;DHT22;2514;53.524;10.166;2022-11-25T10:40:20;5.20;99.90
4993;DHT22;2514;53.524;10.166;2022-11-25T10:42:47;5.20;99.90
4993;DHT22;2514;53.524;10.166;2022-11-25T10:45:15;5.20;99.90
4993;DHT22;2514;53.524;10.166;2022-11-25T10:48:06;5.30;99.90
4993;DHT22;2514;53.524;10.166;2022-11-25T10:50:43;5.30;99.90
4993;DHT22;2514;53.524;10.166;2022-11-25T10:53:23;5.30;99.90
4993;DHT22;2514;53.524;10.166;2022-11-25T10:56:00;5.40;99.90
4993;DHT22;2514;53.524;10.166;2022-11-25T10:58:30;5.40;99.90
4993;DHT22;2514;53.524;10.166;2022-11-25T11:01:04;5.30;99.90
4993;DHT22;2514;53.524;10.166;2022-11-25T11:03:35;5.40;99.90
4993;DHT22;2514;53.524;10.166;2022-11-25T11:06:04;5.40;99.90
4993;DHT22;2514;53.524;10.166;2022-11-25T11:08:36;5.40;99.90
4993;DHT22;2514;53.524;10.166;2022-11-25T11:11:18;5.40;99.90
4993;DHT22;2514;53.524;10.166;2022-11-25T11:13:47;5.40;99.90
4993;DHT22;2514;53.524;10.166;2022-11-25T11:16:28;5.50;99.90
4993;DHT22;2514;53.524;10.166;2022-11-25T11:18:56;5.50;99.90
4993;DHT22;2514;53.524;10.166;2022-11-25T11:21:29;5.50;99.90
4993;DHT22;2514;53.524;10.166;2022-11-25T11:23:58;5.50;99.90
4993;DHT22;2514;53.524;10.166;2022-11-25T11:26:27;5.50;99.90
4993;DHT22;2514;53.524;10.166;2022-11-25T11:29:02;5.50;99.90
4993;DHT22;2514;53.524;10.166;2022-11-25T11:31:33;5.50;99.90
4993;DHT22;2514;53.524;10.166;2022-11-25T11:34:24;5.60;99.90
4993;DHT22;2514;53.524;10.166;2022-11-25T11:37:21;5.70;99.90
4993;DHT22;2514;53.524;10.166;2022-11-25T11:40:21;5.70;99.90
4993;DHT22;2514;53.524;10.166;2022-11-25T11:43:05;5.80;99.90
4993;DHT22;2514;53.524;10.166;2022-11-25T11:45:54;5.90;99.90
4993;DHT22;2514;53.524;10.166;2022-11-25T11:48:31;5.90;99.90
4993;DHT22;2514;53.524;10.166;2022-11-25T11:51:15;6.00;99.90
4993;DHT22;2514;53.524;10.166;2022-11-25T11:53:56;6.00;99.90
4993;DHT22;2514;53.524;10.166;2022-11-25T11:56:34;5.90;99.90
4993;DHT22;2514;53.524;10.166;2022-11-25T11:59:37;6.00;99.90
4993;DHT22;2514;53.524;10.166;2022-11-25T12:02:30;6.00;99.90
4993;DHT22;2514;53.524;10.166;2022-11-25T12:05:11;6.00;99.90
4993;DHT22;2514;53.524;10.166;2022-11-25T12:07:46;6.00;99.90
4993;DHT22;2514;53.524;10.166;2022-11-25T12:10:23;6.00;99.90
4993;DHT22;2514;53.524;10.166;2022-11-25T12:12:57;6.00;99.90
4993;DHT22;2514;53.524;10.166;2022-11-25T12:15:35;6.00;99.90
4993;DHT22;2514;53.524;10.166;2022-11-25T12:18:15;6.00;99.90
4993;DHT22;2514;53.524;10.166;2022-11-25T12:20:51;6.10;99.90
4993;DHT22;2514;53.524;10.166;2022-11-25T12:23:24;6.10;99.90
4993;DHT22;2514;53.524;10.166;2022-11-25T12:26:06;6.10;99.90
4993;DHT22;2514;53.524;10.166;2022-11-25T12:28:40;6.10;99.90
4993;DHT22;2514;53.524;10.166;2022-11-25T12:31:14;6.10;99.90
4993;DHT22;2514;53.524;10.166;2022-11-25T12:33:48;6.10;99.90
4993;DHT22;2514;53.524;10.166;2022-11-25T12:36:25;6.20;99.90
4993;DHT22;2514;53.524;10.166;2022-11-25T12:38:58;6.30;99.90
4993;DHT22;2514;53.524;10.166;2022-11-25T12:41:34;6.30;99.90
4993;DHT22;2514;53.524;10.166;2022-11-25T12:44:11;6.30;99.90
4993;DHT22;2514;53.524;10.166;2022-11-25T12:46:43;6.30;99.90
4993;DHT22;2514;53.524;10.166;2022-11-25T12:49:16;6.40;99.90
4993;DHT22;2514;53.524;10.166;2022-11-25T12:52:01;6.40;99.90
4993;DHT22;2514;53.524;10.166;2022-11-25T12:54:52;6.40;99.90
4993;DHT22;2514;53.524;10.166;2022-11-25T13:10:16;6.60;99.90
4993;DHT22;2514;53.524;10.166;2022-11-25T13:13:06;6.60;99.90
4993;DHT22;2514;53.524;10.166;2022-11-25T13:15:40;6.70;99.90
4993;DHT22;2514;53.524;10.166;2022-11-25T13:18:11;6.70;99.90
4993;DHT22;2514;53.524;10.166;2022-11-25T13:20:46;6.70;99.90
4993;DHT22;2514;53.524;10.166;2022-11-25T13:23:28;6.70;99.90
4993;DHT22;2514;53.524;10.166;2022-11-25T13:32:42;6.70;99.90
4993;DHT22;2514;53.524;10.166;2022-11-25T13:35:35;6.70;99.90
4993;DHT22;2514;53.524;10.166;2022-11-25T13:38:35;6.80;99.90
4993;DHT22;2514;53.524;10.166;2022-11-25T13:41:32;6.70;99.90
4993;DHT22;2514;53.524;10.166;2022-11-25T13:44:05;6.70;99.90
4993;DHT22;2514;53.524;10.166;2022-11-25T13:46:44;6.70;99.90
4993;DHT22;2514;53.524;10.166;2022-11-25T13:49:40;6.60;99.90
4993;DHT22;2514;53.524;10.166;2022-11-25T13:52:31;6.70;99.90
4993;DHT22;2514;53.524;10.166;2022-11-25T13:55:19;6.60;99.90
4993;DHT22;2514;53.524;10.166;2022-11-25T13:58:01;6.70;99.90
4993;DHT22;2514;53.524;10.166;2022-11-25T14:01:01;6.80;99.90
4993;DHT22;2514;53.524;10.166;2022-11-25T14:03:56;6.80;99.90
4993;DHT22;2514;53.524;10.166;2022-11-25T14:06:37;6.80;99.90
4993;DHT22;2514;53.524;10.166;2022-11-25T14:09:36;6.80;99.90
4993;DHT22;2514;53.524;10.166;2022-11-25T14:12:31;6.90;99.90
4993;DHT22;2514;53.524;10.166;2022-11-25T14:15:28;6.90;99.90
4993;DHT22;2514;53.524;10.166;2022-11-25T14:18:20;6.90;99.90
4993;DHT22;2514;53.524;10.166;2022-11-25T14:20:58;7.00;99.90
4993;DHT22;2514;53.524;10.166;2022-11-25T14:23:48;7.00;99.90
4993;DHT22;2514;53.524;10.166;2022-11-25T14:26:26;7.00;99.90
4993;DHT22;2514;53.524;10.166;2022-11-25T14:28:57;7.00;99.90
4993;DHT22;2514;53.524;10.166;2022-11-25T14:31:33;7.00;99.90
4993;DHT22;2514;53.524;10.166;2022-11-25T14:34:11;7.00;99.90
4993;DHT22;2514;53.524;10.166;2022-11-25T14:36:46;7.00;99.90
4993;DHT22;2514;53.524;10.166;2022-11-25T14:39:20;7.10;99.90
4993;DHT22;2514;53.524;10.166;2022-11-25T14:41:56;7.10;99.90
4993;DHT22;2514;53.524;10.166;2022-11-25T14:44:29;7.10;99.90
4993;DHT22;2514;53.524;10.166;2022-11-25T14:47:03;7.00;99.90
4993;DHT22;2514;53.524;10.166;2022-11-25T14:49:44;7.00;99.90
4993;DHT22;2514;53.524;10.166;2022-11-25T14:52:20;7.00;99.90
4993;DHT22;2514;53.524;10.166;2022-11-25T14:54:49;7.00;99.90
4993;DHT22;2514;53.524;10.166;2022-11-25T14:57:22;7.00;99.90
4993;DHT22;2514;53.524;10.166;2022-11-25T14:59:51;7.00;99.90
4993;DHT22;2514;53.524;10.166;2022-11-25T15:02:26;7.00;99.90
4993;DHT22;2514;53.524;10.166;2022-11-25T15:05:14;7.00;99.90
4993;DHT22;2514;53.524;10.166;2022-11-25T15:07:55;7.00;99.90
4993;DHT22;2514;53.524;10.166;2022-11-25T15:10:40;7.00;99.90
4993;DHT22;2514;53.524;10.166;2022-11-25T15:13:18;7.00;99.90
4993;DHT22;2514;53.524;10.166;2022-11-25T15:15:51;7.00;99.90
4993;DHT22;2514;53.524;10.166;2022-11-25T15:18:22;7.00;99.90
4993;DHT22;2514;53.524;10.166;2022-11-25T15:20:55;7.00;99.90
4993;DHT22;2514;53.524;10.166;2022-11-25T15:23:27;7.00;99.90
4993;DHT22;2514;53.524;10.166;2022-11-25T15:25:56;7.00;99.90
4993;DHT22;2514;53.524;10.166;2022-11-25T15:28:23;7.00;99.90
4993;DHT22;2514;53.524;10.166;2022-11-25T15:30:57;7.00;99.90
4993;DHT22;2514;53.524;10.166;2022-11-25T15:33:26;7.00;99.90
4993;DHT22;2514;53.524;10.166;2022-11-25T15:35:54;7.00;99.90
4993;DHT22;2514;53.524;10.166;2022-11-25T15:38:36;7.00;99.90
4993;DHT22;2514;53.524;10.166;2022-11-25T15:41:12;7.10;99.90
4993;DHT22;2514;53.524;10.166;2022-11-25T15:43:44;7.10;99.90
4993;DHT22;2514;53.524;10.166;2022-11-25T15:46:11;7.10;99.90
4993;DHT22;2514;53.524;10.166;2022-11-25T15:48:41;7.10;99.90
4993;DHT22;2514;53.524;10.166;2022-11-25T15:51:20;7.10;99.90
4993;DHT22;2514;53.524;10.166;2022-11-25T15:53:55;7.10;99.90
4993;DHT22;2514;53.524;10.166;2022-11-25T15:56:27;7.20;99.90
4993;DHT22;2514;53.524;10.166;2022-11-25T15:58:54;7.20;99.90
4993;DHT22;2514;53.524;10.166;2022-11-25T16:01:22;7.20;99.90
4993;DHT22;2514;53.524;10.166;2022-11-25T16:03:50;7.30;99.90
4993;DHT22;2514;53.524;10.166;2022-11-25T16:06:22;7.40;99.90
4993;DHT22;2514;53.524;10.166;2022-11-25T16:08:56;7.30;99.90
4993;DHT22;2514;53.524;10.166;2022-11-25T16:11:25;7.30;99.90
4993;DHT22;2514;53.524;10.166;2022-11-25T16:14:16;7.20;99.90
4993;DHT22;2514;53.524;10.166;2022-11-25T16:16:43;7.20;99.90
4993;DHT22;2514;53.524;10.166;2022-11-25T16:19:16;7.30;99.90
4993;DHT22;2514;53.524;10.166;2022-11-25T16:21:49;7.30;99.90
4993;DHT22;2514;53.524;10.166;2022-11-25T16:24:45;7.40;99.90
4993;DHT22;2514;53.524;10.166;2022-11-25T16:27:20;7.40;99.90
4993;DHT22;2514;53.524;10.166;2022-11-25T16:29:54;7.40;99.90
4993;DHT22;2514;53.524;10.166;2022-11-25T16:32:24;7.40;99.90
4993;DHT22;2514;53.524;10.166;2022-11-25T16:34:53;7.40;99.90
4993;DHT22;2514;53.524;10.166;2022-11-25T16:37:22;7.40;99.90
4993;DHT22;2514;53.524;10.166;2022-11-25T16:39:50;7.40;99.90
4993;DHT22;2514;53.524;10.166;2022-11-25T16:42:20;7.40;99.90
4993;DHT22;2514;53.524;10.166;2022-11-25T16:44:49;7.40;99.90
4993;DHT22;2514;53.524;10.166;2022-11-25T16:47:18;7.30;99.90
4993;DHT22;2514;53.524;10.166;2022-11-25T16:49:46;7.30;99.90
4993;DHT22;2514;53.524;10.166;2022-11-25T16:52:13;7.30;99.90
4993;DHT22;2514;53.524;10.166;2022-11-25T16:54:40;7.30;99.90